createdAt,value
2022-10-19T00:00:04.219Z,98534.30
2022-10-19T00:02:54.840Z,98539.06
2022-10-19T00:05:24.274Z,98544.48
2022-10-19T00:07:55.770Z,98546.94
2022-10-19T00:10:26.705Z,98542.98
2022-10-19T00:12:57.770Z,98545.02
2022-10-19T00:15:28.704Z,98545.94
2022-10-19T00:18:00.093Z,98549.62
2022-10-19T00:20:30.963Z,98548.34
2022-10-19T00:23:01.788Z,98546.42
2022-10-19T00:25:32.820Z,98547.39
2022-10-19T00:28:03.889Z,98545.63
2022-10-19T00:30:40.625Z,98547.10
2022-10-19T00:33:21.869Z,98547.55
2022-10-19T00:35:53.940Z,98541.91
2022-10-19T00:38:25.193Z,98533.10
2022-10-19T00:40:56.201Z,98533.30
2022-10-19T00:43:31.793Z,98535.05
2022-10-19T00:46:02.532Z,98540.81
2022-10-19T00:48:35.058Z,98536.30
2022-10-19T00:51:06.486Z,98528.82
2022-10-19T00:53:38.440Z,98526.20
2022-10-19T00:56:14.106Z,98524.33
2022-10-19T00:58:46.508Z,98526.14
2022-10-19T01:01:21.201Z,98532.41
2022-10-19T01:03:51.979Z,98530.39
2022-10-19T01:06:24.513Z,98524.14
2022-10-19T01:08:55.540Z,98524.55
2022-10-19T01:11:39.778Z,98524.23
2022-10-19T01:14:27.107Z,98528.01
2022-10-19T01:17:06.304Z,98528.26
2022-10-19T01:20:20.510Z,98520.67
2022-10-19T01:23:06.827Z,98524.77
2022-10-19T01:25:49.665Z,98522.86
2022-10-19T01:28:40.411Z,98513.09
2022-10-19T01:31:23.505Z,98508.73
2022-10-19T01:34:01.134Z,98500.95
2022-10-19T01:36:41.489Z,98498.50
2022-10-19T01:39:18.753Z,98503.60
2022-10-19T01:42:00.006Z,98499.09
2022-10-19T01:44:37.707Z,98503.95
2022-10-19T01:47:12.944Z,98504.36
2022-10-19T01:49:48.425Z,98508.80
2022-10-19T01:52:22.765Z,98512.64
2022-10-19T01:55:04.222Z,98514.33
2022-10-19T01:57:38.243Z,98513.80
2022-10-19T02:00:12.472Z,98510.98
2022-10-19T02:02:47.536Z,98512.95
2022-10-19T02:05:21.576Z,98510.90
2022-10-19T02:07:56.042Z,98509.62
2022-10-19T02:10:28.787Z,98510.27
2022-10-19T02:13:01.025Z,98505.77
2022-10-19T02:15:35.775Z,98500.95
2022-10-19T02:18:08.267Z,98501.63
2022-10-19T02:20:39.442Z,98497.33
2022-10-19T02:23:10.703Z,98494.26
2022-10-19T02:25:41.758Z,98491.14
2022-10-19T02:28:12.749Z,98493.23
2022-10-19T02:30:42.522Z,98491.34
2022-10-19T02:33:13.655Z,98486.84
2022-10-19T02:35:44.940Z,98483.98
2022-10-19T02:38:20.918Z,98479.44
2022-10-19T02:40:59.607Z,98480.87
2022-10-19T02:43:34.468Z,98482.09
2022-10-19T02:46:09.264Z,98481.89
2022-10-19T02:48:41.584Z,98485.81
2022-10-19T02:51:35.981Z,98485.49
2022-10-19T02:54:08.891Z,98486.30
2022-10-19T02:56:39.739Z,98488.85
2022-10-19T02:59:10.494Z,98488.90
2022-10-19T03:01:41.416Z,98488.04
2022-10-19T03:04:12.476Z,98484.46
2022-10-19T03:06:43.443Z,98486.15
2022-10-19T03:09:14.173Z,98486.42
2022-10-19T03:11:45.119Z,98488.55
2022-10-19T03:14:16.071Z,98488.27
2022-10-19T03:16:47.459Z,98493.96
2022-10-19T03:19:18.389Z,98496.38
2022-10-19T03:21:49.686Z,98495.15
2022-10-19T03:24:20.763Z,98490.30
2022-10-19T03:26:51.670Z,98489.92
2022-10-19T03:29:22.652Z,98485.92
2022-10-19T03:31:53.873Z,98484.55
2022-10-19T03:34:24.769Z,98487.58
2022-10-19T03:36:56.732Z,98492.19
2022-10-19T03:39:27.899Z,98496.64
2022-10-19T03:41:58.819Z,98493.73
2022-10-19T03:44:28.467Z,98491.58
2022-10-19T03:46:59.442Z,98496.83
2022-10-19T03:49:30.477Z,98494.92
2022-10-19T03:52:01.553Z,98490.27
2022-10-19T03:54:32.985Z,98489.02
2022-10-19T03:57:04.271Z,98494.42
2022-10-19T03:59:34.999Z,98487.54
2022-10-19T04:02:06.683Z,98482.27
2022-10-19T04:04:37.940Z,98482.02
2022-10-19T04:07:08.814Z,98477.58
2022-10-19T04:09:40.411Z,98483.51
2022-10-19T04:12:11.427Z,98480.36
2022-10-19T04:14:58.068Z,98479.09
2022-10-19T04:17:29.499Z,98484.15
2022-10-19T04:20:00.329Z,98482.90
2022-10-19T04:22:31.522Z,98477.13
2022-10-19T04:25:02.289Z,98482.00
2022-10-19T04:27:33.378Z,98482.63
2022-10-19T04:30:04.876Z,98490.56
2022-10-19T04:32:36.024Z,98488.23
2022-10-19T04:35:08.413Z,98483.64
2022-10-19T04:37:39.713Z,98488.86
2022-10-19T04:40:15.028Z,98490.06
2022-10-19T04:42:46.387Z,98495.64
2022-10-19T04:45:17.921Z,98492.91
2022-10-19T04:47:49.032Z,98491.30
2022-10-19T04:50:20.106Z,98494.09
2022-10-19T04:52:50.966Z,98489.80
2022-10-19T04:55:21.908Z,98492.58
2022-10-19T04:57:53.047Z,98490.71
2022-10-19T05:00:24.140Z,98487.33
2022-10-19T05:02:55.023Z,98490.67
2022-10-19T05:05:26.793Z,98497.53
2022-10-19T05:07:57.638Z,98505.05
2022-10-19T05:10:28.895Z,98505.48
2022-10-19T05:12:58.280Z,98502.34
2022-10-19T05:15:29.318Z,98506.08
2022-10-19T05:18:00.515Z,98512.27
2022-10-19T05:20:31.233Z,98516.96
2022-10-19T05:23:06.249Z,98508.56
2022-10-19T05:25:38.470Z,98506.59
2022-10-19T05:28:09.366Z,98504.91
2022-10-19T05:30:40.113Z,98500.95
2022-10-19T05:33:10.879Z,98503.00
2022-10-19T05:35:41.789Z,98508.29
2022-10-19T05:38:12.838Z,98509.92
2022-10-19T05:40:52.879Z,98509.85
2022-10-19T05:43:24.826Z,98516.02
2022-10-19T05:45:55.938Z,98520.11
2022-10-19T05:48:28.088Z,98522.80
2022-10-19T05:50:59.066Z,98529.61
2022-10-19T05:53:30.544Z,98529.92
2022-10-19T05:56:01.469Z,98532.13
2022-10-19T05:58:32.815Z,98533.89
2022-10-19T06:01:04.144Z,98537.52
2022-10-19T06:03:35.612Z,98541.16
2022-10-19T06:06:07.704Z,98542.57
2022-10-19T06:08:39.438Z,98541.95
2022-10-19T06:11:12.616Z,98538.80
2022-10-19T06:13:45.098Z,98540.56
2022-10-19T06:16:17.888Z,98540.26
2022-10-19T06:18:49.002Z,98535.83
2022-10-19T06:21:21.775Z,98543.16
2022-10-19T06:23:54.918Z,98548.65
2022-10-19T06:26:27.063Z,98551.79
2022-10-19T06:29:00.674Z,98549.29
2022-10-19T06:31:33.680Z,98544.52
2022-10-19T06:34:05.255Z,98547.83
2022-10-19T06:36:36.642Z,98546.62
2022-10-19T06:39:07.952Z,98546.66
2022-10-19T06:41:38.950Z,98543.41
2022-10-19T06:44:10.228Z,98540.34
2022-10-19T06:46:39.600Z,98543.67
2022-10-19T06:49:13.488Z,98539.30
2022-10-19T06:51:44.423Z,98541.68
2022-10-19T06:54:15.138Z,98546.95
2022-10-19T06:56:46.162Z,98548.97
2022-10-19T06:59:17.707Z,98551.92
2022-10-19T07:01:48.636Z,98554.20
2022-10-19T07:04:19.520Z,98556.27
2022-10-19T07:06:50.392Z,98554.50
2022-10-19T07:09:22.499Z,98558.92
2022-10-19T07:11:53.348Z,98564.66
2022-10-19T07:14:25.531Z,98564.30
2022-10-19T07:16:56.687Z,98565.06
2022-10-19T07:19:29.784Z,98563.42
2022-10-19T07:22:00.849Z,98567.60
2022-10-19T07:24:31.975Z,98570.92
2022-10-19T07:27:02.817Z,98570.02
2022-10-19T07:29:33.939Z,98574.83
2022-10-19T07:32:05.351Z,98576.86
2022-10-19T07:34:36.038Z,98576.48
2022-10-19T07:37:09.524Z,98579.84
2022-10-19T07:39:38.865Z,98580.31
2022-10-19T07:42:10.009Z,98582.59
2022-10-19T07:44:40.943Z,98580.08
2022-10-19T07:47:11.977Z,98582.36
2022-10-19T07:49:42.981Z,98577.08
2022-10-19T07:52:13.997Z,98573.92
2022-10-19T07:54:46.799Z,98575.67
2022-10-19T07:57:18.032Z,98574.98
2022-10-19T07:59:48.908Z,98571.59
2022-10-19T08:02:20.481Z,98564.71
2022-10-19T08:05:09.235Z,98566.59
2022-10-19T08:07:42.150Z,98564.88
2022-10-19T08:10:11.775Z,98568.80
2022-10-19T08:12:42.715Z,98572.55
2022-10-19T08:15:13.829Z,98578.26
2022-10-19T08:17:44.810Z,98576.73
2022-10-19T08:20:15.673Z,98578.64
2022-10-19T08:22:46.983Z,98577.52
2022-10-19T08:25:18.210Z,98581.60
2022-10-19T08:27:48.978Z,98582.08
2022-10-19T08:30:20.228Z,98581.84
2022-10-19T08:32:51.199Z,98586.13
2022-10-19T08:35:20.396Z,98586.13
2022-10-19T08:37:52.060Z,98581.89
2022-10-19T08:40:27.212Z,98578.85
2022-10-19T08:43:02.818Z,98582.40
2022-10-19T08:45:42.783Z,98578.83
2022-10-19T08:48:32.926Z,98574.67
2022-10-19T08:51:04.367Z,98580.91
2022-10-19T08:53:42.884Z,98579.27
2022-10-19T08:56:45.700Z,98572.48
2022-10-19T08:59:20.949Z,98574.27
2022-10-19T09:01:56.053Z,98576.30
2022-10-19T09:04:32.200Z,98581.20
2022-10-19T09:07:24.525Z,98578.61
2022-10-19T09:09:59.119Z,98579.61
2022-10-19T09:12:41.476Z,98582.45
2022-10-19T09:15:19.104Z,98580.27
2022-10-19T09:17:50.328Z,98577.90
2022-10-19T09:20:24.315Z,98578.20
2022-10-19T09:23:02.138Z,98580.90
2022-10-19T09:25:38.750Z,98587.55
2022-10-19T09:28:39.862Z,98582.23
2022-10-19T09:31:16.514Z,98582.39
2022-10-19T09:33:52.792Z,98576.48
2022-10-19T09:36:39.289Z,98584.52
2022-10-19T09:39:16.765Z,98580.61
2022-10-19T09:41:52.336Z,98572.02
2022-10-19T09:44:24.407Z,98568.98
2022-10-19T09:47:04.383Z,98567.21
2022-10-19T09:49:46.302Z,98570.93
2022-10-19T09:52:35.365Z,98570.36
2022-10-19T09:55:18.892Z,98575.86
2022-10-19T09:57:51.243Z,98574.63
2022-10-19T10:00:24.461Z,98573.80
2022-10-19T10:02:56.869Z,98576.27
2022-10-19T10:05:34.263Z,98579.42
2022-10-19T10:08:03.869Z,98583.66
2022-10-19T10:10:44.100Z,98582.80
2022-10-19T10:13:20.768Z,98590.95
2022-10-19T10:15:56.897Z,98589.05
2022-10-19T10:18:29.714Z,98593.80
2022-10-19T10:21:06.067Z,98589.58
2022-10-19T10:23:38.278Z,98592.45
2022-10-19T10:26:19.949Z,98587.48
2022-10-19T10:28:52.060Z,98587.23
2022-10-19T10:31:27.341Z,98582.77
2022-10-19T10:34:12.229Z,98580.41
2022-10-19T10:36:56.530Z,98581.23
2022-10-19T10:39:28.859Z,98582.10
2022-10-19T10:42:06.332Z,98580.33
2022-10-19T10:44:39.212Z,98571.96
2022-10-19T10:47:18.042Z,98575.46
2022-10-19T10:49:57.942Z,98574.25
2022-10-19T10:52:32.028Z,98576.59
2022-10-19T10:55:05.971Z,98577.97
2022-10-19T10:57:41.196Z,98580.30
2022-10-19T11:00:15.467Z,98579.91
2022-10-19T11:02:52.640Z,98576.05
2022-10-19T11:05:26.797Z,98580.13
2022-10-19T11:08:04.376Z,98578.92
2022-10-19T11:10:40.463Z,98582.90
2022-10-19T11:13:19.601Z,98581.90
2022-10-19T11:15:56.869Z,98579.85
2022-10-19T11:18:31.724Z,98576.94
2022-10-19T11:21:10.798Z,98581.69
2022-10-19T11:23:55.196Z,98588.71
2022-10-19T11:26:43.012Z,98579.72
2022-10-19T11:29:35.331Z,98584.95
2022-10-19T11:32:13.331Z,98582.21
2022-10-19T11:34:58.317Z,98580.54
2022-10-19T11:37:45.527Z,98576.16
2022-10-19T11:40:28.908Z,98574.60
2022-10-19T11:43:07.031Z,98576.58
2022-10-19T11:45:49.307Z,98574.71
2022-10-19T11:48:43.057Z,98566.73
2022-10-19T11:51:22.156Z,98562.08
2022-10-19T11:54:10.020Z,98561.95
2022-10-19T11:57:03.231Z,98567.09
2022-10-19T11:59:46.266Z,98557.48
2022-10-19T12:02:39.540Z,98552.86
2022-10-19T12:05:17.294Z,98558.15
2022-10-19T12:07:58.044Z,98553.53
2022-10-19T12:10:35.395Z,98554.23
2022-10-19T12:13:11.951Z,98555.48
2022-10-19T12:15:47.570Z,98555.08
2022-10-19T12:18:24.937Z,98554.71
2022-10-19T12:20:59.797Z,98556.25
2022-10-19T12:23:33.661Z,98552.20
2022-10-19T12:26:08.565Z,98554.14
2022-10-19T12:28:44.208Z,98559.61
2022-10-19T12:31:16.204Z,98552.68
2022-10-19T12:33:54.567Z,98554.27
2022-10-19T12:36:38.533Z,98557.33
2022-10-19T12:39:19.304Z,98551.91
2022-10-19T12:41:54.724Z,98549.42
2022-10-19T12:44:43.830Z,98546.97
2022-10-19T12:47:18.928Z,98546.98
2022-10-19T12:49:55.643Z,98544.83
2022-10-19T12:52:46.110Z,98546.39
2022-10-19T12:55:34.930Z,98543.38
2022-10-19T12:58:22.858Z,98536.59
2022-10-19T13:01:03.336Z,98536.59
2022-10-19T13:03:37.980Z,98529.13
2022-10-19T13:06:13.856Z,98536.13
2022-10-19T13:08:48.675Z,98538.41
2022-10-19T13:11:20.606Z,98536.17
2022-10-19T13:13:58.605Z,98537.39
2022-10-19T13:17:02.254Z,98540.58
2022-10-19T13:19:33.267Z,98537.91
2022-10-19T13:22:30.109Z,98533.88
2022-10-19T13:25:28.248Z,98535.00
2022-10-19T13:28:23.195Z,98535.98
2022-10-19T13:31:23.321Z,98540.64
2022-10-19T13:33:55.688Z,98544.96
2022-10-19T13:36:27.753Z,98545.05
2022-10-19T13:39:14.768Z,98552.50
2022-10-19T13:41:51.703Z,98548.18
2022-10-19T13:44:34.023Z,98550.44
2022-10-19T13:47:33.156Z,98548.80
2022-10-19T13:50:36.508Z,98549.08
2022-10-19T13:53:24.699Z,98551.36
2022-10-19T13:56:16.426Z,98553.95
2022-10-19T13:59:32.162Z,98556.45
2022-10-19T14:02:54.053Z,98546.91
2022-10-19T14:08:31.500Z,98541.98
2022-10-19T14:11:06.544Z,98535.97
2022-10-19T14:13:37.648Z,98539.23
2022-10-19T14:16:18.446Z,98531.63
2022-10-19T14:18:56.556Z,98532.54
2022-10-19T14:21:37.985Z,98530.09
2022-10-19T14:24:22.633Z,98533.59
2022-10-19T14:26:54.225Z,98535.23
2022-10-19T14:29:25.195Z,98528.30
2022-10-19T14:31:56.211Z,98525.71
2022-10-19T14:34:27.249Z,98524.05
2022-10-19T14:36:58.273Z,98529.70
2022-10-19T14:39:33.434Z,98528.83
2022-10-19T14:42:12.768Z,98532.27
2022-10-19T14:44:45.722Z,98538.11
2022-10-19T14:47:27.195Z,98539.42
2022-10-19T14:49:58.434Z,98543.70
2022-10-19T14:52:33.922Z,98541.59
2022-10-19T14:55:12.669Z,98537.98
2022-10-19T14:57:51.732Z,98537.62
2022-10-19T15:03:05.763Z,98539.08
2022-10-19T15:05:42.527Z,98545.73
2022-10-19T15:08:22.147Z,98539.83
2022-10-19T15:10:53.500Z,98535.67
2022-10-19T15:13:30.498Z,98533.32
2022-10-19T15:16:01.244Z,98535.00
2022-10-19T15:18:55.438Z,98535.70
2022-10-19T15:21:27.290Z,98534.48
2022-10-19T15:24:09.366Z,98530.16
2022-10-19T15:26:40.282Z,98526.15
2022-10-19T15:29:20.404Z,98526.13
2022-10-19T15:31:56.383Z,98521.68
2022-10-19T15:34:30.919Z,98520.64
2022-10-19T15:37:03.583Z,98527.71
2022-10-19T15:39:41.141Z,98525.98
2022-10-19T15:42:37.864Z,98526.81
2022-10-19T15:45:36.260Z,98529.35
2022-10-19T15:48:30.057Z,98521.33
2022-10-19T15:51:01.105Z,98519.30
2022-10-19T15:53:30.502Z,98519.33
2022-10-19T15:58:38.114Z,98518.08
2022-10-19T16:01:11.070Z,98517.19
2022-10-19T16:03:42.029Z,98522.87
2022-10-19T16:06:13.995Z,98523.89
2022-10-19T16:08:46.226Z,98523.59
2022-10-19T16:11:19.093Z,98526.13
2022-10-19T16:13:50.120Z,98529.41
2022-10-19T16:16:24.983Z,98531.79
2022-10-19T16:18:56.272Z,98533.73
2022-10-19T16:21:30.304Z,98539.91
2022-10-19T16:24:01.691Z,98548.46
2022-10-19T16:26:33.184Z,98547.88
2022-10-19T16:29:04.114Z,98546.08
2022-10-19T16:31:35.169Z,98550.63
2022-10-19T16:34:06.507Z,98554.55
2022-10-19T16:36:37.542Z,98555.42
2022-10-19T16:39:08.375Z,98562.36
2022-10-19T16:44:14.318Z,98566.02
2022-10-19T16:46:45.263Z,98574.44
2022-10-19T16:49:15.099Z,98578.91
2022-10-19T16:51:45.869Z,98581.39
2022-10-19T16:54:17.714Z,98584.48
2022-10-19T16:56:50.162Z,98585.55
2022-10-19T16:59:21.566Z,98586.84
2022-10-19T17:01:53.936Z,98591.10
2022-10-19T17:04:26.159Z,98589.54
2022-10-19T17:06:57.665Z,98590.77
2022-10-19T17:09:44.284Z,98595.50
2022-10-19T17:12:16.068Z,98598.15
2022-10-19T17:14:47.215Z,98601.55
2022-10-19T17:17:18.150Z,98606.03
2022-10-19T17:19:49.344Z,98602.97
2022-10-19T17:22:20.242Z,98606.16
2022-10-19T17:24:51.213Z,98607.92
2022-10-19T17:27:20.707Z,98608.23
2022-10-19T17:29:52.079Z,98616.90
2022-10-19T17:32:23.027Z,98615.77
2022-10-19T17:34:56.059Z,98616.37
2022-10-19T17:37:26.922Z,98617.12
2022-10-19T17:39:58.208Z,98618.90
2022-10-19T17:42:29.114Z,98619.88
2022-10-19T17:45:00.285Z,98627.90
2022-10-19T17:47:31.598Z,98635.98
2022-10-19T17:50:02.878Z,98634.55
2022-10-19T17:52:33.933Z,98635.40
2022-10-19T17:55:12.286Z,98638.15
2022-10-19T17:57:43.964Z,98636.68
2022-10-19T18:00:16.327Z,98643.27
2022-10-19T18:02:48.898Z,98642.05
2022-10-19T18:05:20.622Z,98645.66
2022-10-19T18:07:53.805Z,98645.18
2022-10-19T18:10:24.670Z,98651.28
2022-10-19T18:12:55.601Z,98653.96
2022-10-19T18:15:26.588Z,98651.14
2022-10-19T18:17:57.274Z,98655.66
2022-10-19T18:20:28.478Z,98654.69
2022-10-19T18:22:59.231Z,98655.86
2022-10-19T18:25:42.562Z,98655.29
2022-10-19T18:28:21.435Z,98656.30
2022-10-19T18:30:52.651Z,98653.48
2022-10-19T18:33:23.680Z,98658.10
2022-10-19T18:35:58.671Z,98658.02
2022-10-19T18:38:29.657Z,98662.13
2022-10-19T18:41:04.364Z,98659.89
2022-10-19T18:43:35.506Z,98661.36
2022-10-19T18:46:07.080Z,98662.66
2022-10-19T18:48:39.304Z,98665.61
2022-10-19T18:51:10.823Z,98667.70
2022-10-19T18:53:41.821Z,98666.20
2022-10-19T18:56:15.387Z,98666.86
2022-10-19T18:58:46.873Z,98668.48
2022-10-19T19:01:20.401Z,98668.47
2022-10-19T19:03:52.888Z,98671.20
2022-10-19T19:06:25.722Z,98667.90
2022-10-19T19:08:58.747Z,98668.89
2022-10-19T19:11:34.303Z,98666.39
2022-10-19T19:14:12.656Z,98668.36
2022-10-19T19:16:44.863Z,98666.81
2022-10-19T19:19:17.477Z,98665.34
2022-10-19T19:21:49.839Z,98664.10
2022-10-19T19:24:22.955Z,98664.14
2022-10-19T19:26:55.959Z,98665.32
2022-10-19T19:29:27.998Z,98665.27
2022-10-19T19:31:58.980Z,98666.55
2022-10-19T19:34:29.871Z,98669.26
2022-10-19T19:37:00.883Z,98666.00
2022-10-19T19:39:32.217Z,98664.54
2022-10-19T19:42:03.414Z,98661.98
2022-10-19T19:44:34.920Z,98656.00
2022-10-19T19:47:05.958Z,98652.95
2022-10-19T19:49:37.026Z,98654.10
2022-10-19T19:52:08.399Z,98654.16
2022-10-19T19:54:37.913Z,98655.55
2022-10-19T19:57:08.912Z,98653.45
2022-10-19T19:59:39.983Z,98651.23
2022-10-19T20:02:11.794Z,98654.09
2022-10-19T20:04:43.083Z,98651.83
2022-10-19T20:07:14.218Z,98651.45
2022-10-19T20:09:45.181Z,98650.89
2022-10-19T20:12:16.006Z,98652.42
2022-10-19T20:14:47.235Z,98653.48
2022-10-19T20:17:23.560Z,98656.77
2022-10-19T20:19:54.358Z,98656.30
2022-10-19T20:22:26.185Z,98654.72
2022-10-19T20:24:57.148Z,98657.49
2022-10-19T20:27:28.226Z,98661.07
2022-10-19T20:29:59.412Z,98660.81
2022-10-19T20:32:31.262Z,98667.02
2022-10-19T20:35:03.657Z,98669.52
2022-10-19T20:37:34.622Z,98672.98
2022-10-19T20:40:08.526Z,98675.67
2022-10-19T20:42:42.412Z,98677.08
2022-10-19T20:45:14.084Z,98677.23
2022-10-19T20:47:44.930Z,98676.48
2022-10-19T20:50:17.082Z,98672.20
2022-10-19T20:52:50.350Z,98673.39
2022-10-19T20:55:22.103Z,98675.80
2022-10-19T20:57:53.017Z,98675.92
2022-10-19T21:00:24.081Z,98677.16
2022-10-19T21:02:55.611Z,98676.44
2022-10-19T21:05:24.895Z,98676.33
2022-10-19T21:07:56.698Z,98680.91
2022-10-19T21:10:27.603Z,98682.20
2022-10-19T21:12:58.888Z,98682.09
2022-10-19T21:15:30.039Z,98681.70
2022-10-19T21:18:00.860Z,98680.09
2022-10-19T21:20:31.753Z,98679.67
2022-10-19T21:23:02.529Z,98678.52
2022-10-19T21:25:33.451Z,98681.48
2022-10-19T21:28:04.363Z,98678.84
2022-10-19T21:30:36.471Z,98675.70
2022-10-19T21:33:07.395Z,98678.79
2022-10-19T21:35:39.586Z,98672.00
2022-10-19T21:38:10.611Z,98673.91
2022-10-19T21:40:41.449Z,98670.90
2022-10-19T21:43:12.798Z,98670.17
2022-10-19T21:45:44.710Z,98667.23
2022-10-19T21:48:18.540Z,98669.02
2022-10-19T21:50:50.029Z,98671.85
2022-10-19T21:53:25.715Z,98671.77
2022-10-19T21:56:00.288Z,98664.11
2022-10-19T21:58:31.055Z,98669.56
2022-10-19T22:01:07.678Z,98666.16
2022-10-19T22:03:38.702Z,98667.21
2022-10-19T22:06:10.580Z,98659.03
2022-10-19T22:08:44.782Z,98660.54
2022-10-19T22:11:16.752Z,98663.96
2022-10-19T22:13:47.652Z,98661.08
2022-10-19T22:16:20.288Z,98659.75
2022-10-19T22:18:51.995Z,98661.63
2022-10-19T22:21:24.832Z,98660.63
2022-10-19T22:23:57.847Z,98666.10
2022-10-19T22:26:31.499Z,98668.55
2022-10-19T22:29:03.672Z,98663.09
2022-10-19T22:31:35.106Z,98666.92
2022-10-19T22:34:08.440Z,98666.80
2022-10-19T22:36:39.384Z,98662.41
2022-10-19T22:39:10.730Z,98661.95
2022-10-19T22:42:34.630Z,98658.80
2022-10-19T22:45:24.118Z,98658.23
2022-10-19T22:48:35.698Z,98661.17
2022-10-19T22:51:41.667Z,98661.05
2022-10-19T22:54:12.576Z,98660.78
2022-10-19T22:56:43.977Z,98657.77
2022-10-19T22:59:15.087Z,98656.40
2022-10-19T23:01:46.104Z,98658.66
2022-10-19T23:04:17.208Z,98654.92
2022-10-19T23:06:48.439Z,98652.73
2022-10-19T23:09:19.861Z,98652.48
2022-10-19T23:11:50.803Z,98653.50
2022-10-19T23:14:21.708Z,98655.91
2022-10-19T23:16:52.692Z,98655.53
2022-10-19T23:19:23.899Z,98657.49
2022-10-19T23:21:54.605Z,98665.90
2022-10-19T23:24:25.724Z,98664.16
2022-10-19T23:26:56.967Z,98661.33
2022-10-19T23:29:28.401Z,98664.30
2022-10-19T23:31:59.430Z,98667.43
2022-10-19T23:34:30.467Z,98667.91
2022-10-19T23:37:01.334Z,98664.09
2022-10-19T23:39:32.319Z,98662.27
2022-10-19T23:42:03.205Z,98661.20
2022-10-19T23:44:34.253Z,98667.55
2022-10-19T23:47:05.272Z,98666.69
2022-10-19T23:49:36.175Z,98662.30
2022-10-19T23:52:07.370Z,98660.77
2022-10-19T23:54:38.381Z,98663.52
2022-10-19T23:57:09.250Z,98664.34
2022-10-19T23:59:40.248Z,98659.11
